createdAt,value
2018-05-07T00:01:22.291Z,13.23
2018-05-07T00:03:50.269Z,13.18
2018-05-07T00:06:18.301Z,13.19
2018-05-07T00:08:46.280Z,13.17
2018-05-07T00:11:14.247Z,13.25
2018-05-07T00:13:42.219Z,13.11
2018-05-07T00:16:10.188Z,13.05
2018-05-07T00:18:38.187Z,13.09
2018-05-07T00:21:06.170Z,13.04
2018-05-07T00:23:34.146Z,12.93
2018-05-07T00:26:02.128Z,12.97
2018-05-07T00:28:30.128Z,12.91
2018-05-07T00:30:58.099Z,12.90
2018-05-07T00:33:26.109Z,12.93
2018-05-07T00:35:54.076Z,12.79
2018-05-07T00:38:22.051Z,12.79
2018-05-07T00:40:50.034Z,12.78
2018-05-07T00:43:18.018Z,12.87
2018-05-07T00:45:45.999Z,12.90
2018-05-07T00:48:13.992Z,12.92
2018-05-07T00:50:41.961Z,12.84
2018-05-07T00:53:09.951Z,12.70
2018-05-07T00:55:37.943Z,12.59
2018-05-07T00:58:05.911Z,12.65
2018-05-07T01:00:33.880Z,12.59
2018-05-07T01:03:01.859Z,12.59
2018-05-07T01:05:29.826Z,12.52
2018-05-07T01:07:57.805Z,12.56
2018-05-07T01:10:25.766Z,12.58
2018-05-07T01:12:53.747Z,12.69
2018-05-07T01:15:21.739Z,12.52
2018-05-07T01:17:49.719Z,12.47
2018-05-07T01:20:17.684Z,12.45
2018-05-07T01:22:45.657Z,12.44
2018-05-07T01:25:13.643Z,12.36
2018-05-07T01:27:41.614Z,12.38
2018-05-07T01:30:09.624Z,12.42
2018-05-07T01:32:37.587Z,12.49
2018-05-07T01:35:05.567Z,12.37
2018-05-07T01:37:33.540Z,12.22
2018-05-07T01:40:01.516Z,12.20
2018-05-07T01:42:29.479Z,12.18
2018-05-07T01:44:57.455Z,12.18
2018-05-07T01:47:25.420Z,12.12
2018-05-07T01:49:53.388Z,12.11
2018-05-07T01:52:21.367Z,12.12
2018-05-07T01:54:49.327Z,12.21
2018-05-07T01:57:17.331Z,12.29
2018-05-07T01:59:45.299Z,12.40
2018-05-07T02:02:13.280Z,12.23
2018-05-07T02:04:41.247Z,12.22
2018-05-07T02:07:09.241Z,12.22
2018-05-07T02:09:37.245Z,12.20
2018-05-07T02:12:05.219Z,12.28
2018-05-07T02:14:33.187Z,12.18
2018-05-07T02:17:01.148Z,12.03
2018-05-07T02:19:29.136Z,11.98
2018-05-07T02:21:57.096Z,11.91
2018-05-07T02:24:25.097Z,11.73
2018-05-07T02:26:53.110Z,11.66
2018-05-07T02:29:21.091Z,11.52
2018-05-07T02:31:49.061Z,11.52
2018-05-07T02:34:17.032Z,11.42
2018-05-07T02:36:45.017Z,11.39
2018-05-07T02:39:12.996Z,11.26
2018-05-07T02:41:40.961Z,11.18
2018-05-07T02:44:08.955Z,11.12
2018-05-07T02:46:36.937Z,11.10
2018-05-07T02:49:04.928Z,10.98
2018-05-07T02:51:32.893Z,11.01
2018-05-07T02:54:00.896Z,11.02
2018-05-07T02:56:28.882Z,11.04
2018-05-07T02:58:56.845Z,11.11
2018-05-07T03:01:24.828Z,11.08
2018-05-07T03:03:52.799Z,11.01
2018-05-07T03:06:20.788Z,11.11
2018-05-07T03:08:48.758Z,10.99
2018-05-07T03:11:16.747Z,10.92
2018-05-07T03:13:44.760Z,10.99
2018-05-07T03:16:12.740Z,10.90
2018-05-07T03:18:40.737Z,10.95
2018-05-07T03:21:08.711Z,10.99
2018-05-07T03:23:36.784Z,11.03
2018-05-07T03:26:04.771Z,11.08
2018-05-07T03:28:32.755Z,11.20
2018-05-07T03:31:00.742Z,11.03
2018-05-07T03:33:28.653Z,10.99
2018-05-07T03:35:56.618Z,11.14
2018-05-07T03:38:24.510Z,11.11
2018-05-07T03:40:52.416Z,11.11
2018-05-07T03:43:20.348Z,11.05
2018-05-07T03:45:48.272Z,10.97
2018-05-07T03:48:16.189Z,10.99
2018-05-07T03:50:44.096Z,10.99
2018-05-07T03:53:12.032Z,11.01
2018-05-07T03:55:39.959Z,10.95
2018-05-07T03:58:07.876Z,10.97
2018-05-07T04:00:35.787Z,11.04
2018-05-07T04:03:03.715Z,11.01
2018-05-07T04:05:31.627Z,11.12
2018-05-07T04:07:59.607Z,11.04
2018-05-07T04:10:27.527Z,11.07
2018-05-07T04:12:55.518Z,11.17
2018-05-07T04:15:23.437Z,11.23
2018-05-07T04:18:03.008Z,11.25
2018-05-07T04:20:42.621Z,11.46
2018-05-07T04:26:05.866Z,11.25
2018-05-07T04:28:33.873Z,11.29
2018-05-07T04:31:01.774Z,11.25
2018-05-07T04:33:29.710Z,11.43
2018-05-07T04:35:57.699Z,11.45
2018-05-07T04:38:25.520Z,11.45
2018-05-07T04:40:53.476Z,11.58
2018-05-07T04:43:21.484Z,11.57
2018-05-07T04:45:49.420Z,11.72
2018-05-07T04:48:17.431Z,11.57
2018-05-07T04:50:45.351Z,11.75
2018-05-07T04:53:13.299Z,11.88
2018-05-07T04:55:41.217Z,11.89
2018-05-07T04:58:09.127Z,11.86
2018-05-07T05:00:37.057Z,11.87
2018-05-07T05:03:05.068Z,12.05
2018-05-07T05:05:33.039Z,12.11
2018-05-07T05:08:00.985Z,12.17
2018-05-07T05:10:28.891Z,12.17
2018-05-07T05:12:56.912Z,12.31
2018-05-07T05:15:24.759Z,12.40
2018-05-07T05:17:52.674Z,12.33
2018-05-07T05:20:20.589Z,12.59
2018-05-07T05:22:48.531Z,12.65
2018-05-07T05:25:16.467Z,12.72
2018-05-07T05:27:44.363Z,12.77
2018-05-07T05:30:12.255Z,12.87
2018-05-07T05:32:40.255Z,12.96
2018-05-07T05:35:08.175Z,13.04
2018-05-07T05:37:36.077Z,13.26
2018-05-07T05:40:04.066Z,13.43
2018-05-07T05:42:31.961Z,13.48
2018-05-07T05:44:59.869Z,13.63
2018-05-07T05:47:27.782Z,13.71
2018-05-07T05:49:55.793Z,13.78
2018-05-07T05:52:23.626Z,13.99
2018-05-07T05:54:51.549Z,13.95
2018-05-07T05:57:19.436Z,14.17
2018-05-07T05:59:47.356Z,14.24
2018-05-07T06:02:15.268Z,14.19
2018-05-07T06:04:43.163Z,14.25
2018-05-07T06:07:11.088Z,14.23
2018-05-07T06:09:39.003Z,14.30
2018-05-07T06:12:06.916Z,14.37
2018-05-07T06:14:34.897Z,14.54
2018-05-07T06:17:02.752Z,14.58
2018-05-07T06:19:30.645Z,14.74
2018-05-07T06:21:58.548Z,14.75
2018-05-07T06:24:26.479Z,15.00
2018-05-07T06:26:54.383Z,14.94
2018-05-07T06:29:22.419Z,15.08
2018-05-07T06:31:50.362Z,15.33
2018-05-07T06:34:18.329Z,15.51
2018-05-07T06:36:46.143Z,15.82
2018-05-07T06:39:14.070Z,16.22
2018-05-07T06:41:42.051Z,16.69
2018-05-07T06:44:10.033Z,17.10
2018-05-07T06:46:37.983Z,17.44
2018-05-07T06:49:05.883Z,17.93
2018-05-07T06:51:33.807Z,17.91
2018-05-07T06:54:01.722Z,17.93
2018-05-07T06:56:29.654Z,18.35
2018-05-07T06:58:57.584Z,18.62
2018-05-07T07:01:25.483Z,18.49
2018-05-07T07:03:53.456Z,18.98
2018-05-07T07:06:21.367Z,19.83
2018-05-07T07:08:49.496Z,20.19
2018-05-07T07:11:17.473Z,19.73
2018-05-07T07:13:45.367Z,20.41
2018-05-07T07:16:13.283Z,20.90
2018-05-07T07:18:41.204Z,21.33
2018-05-07T07:21:09.131Z,20.95
2018-05-07T07:23:37.054Z,21.03
2018-05-07T07:26:05.227Z,21.11
2018-05-07T07:28:33.178Z,21.09
2018-05-07T07:31:01.091Z,21.45
2018-05-07T07:33:29.014Z,21.50
2018-05-07T07:35:56.911Z,21.51
2018-05-07T07:38:24.833Z,21.98
2018-05-07T07:40:52.740Z,22.33
2018-05-07T07:43:20.660Z,22.38
2018-05-07T07:45:48.664Z,22.82
2018-05-07T07:48:16.602Z,23.05
2018-05-07T07:50:44.503Z,23.30
2018-05-07T07:53:12.432Z,23.42
2018-05-07T07:55:40.347Z,23.51
2018-05-07T07:58:08.239Z,23.82
2018-05-07T08:00:36.134Z,23.96
2018-05-07T08:03:04.086Z,24.34
2018-05-07T08:05:32.013Z,24.45
2018-05-07T08:07:59.918Z,24.51
2018-05-07T08:10:27.831Z,24.69
2018-05-07T08:12:55.723Z,24.53
2018-05-07T08:15:23.671Z,25.14
2018-05-07T08:17:51.564Z,25.03
2018-05-07T08:20:19.507Z,25.25
2018-05-07T08:22:47.403Z,25.35
2018-05-07T08:25:15.377Z,25.69
2018-05-07T08:27:43.265Z,25.78
2018-05-07T08:30:11.175Z,25.98
2018-05-07T08:32:39.639Z,26.11
2018-05-07T08:35:07.705Z,26.22
2018-05-07T08:37:35.599Z,26.15
2018-05-07T08:40:03.502Z,26.65
2018-05-07T08:42:31.467Z,26.45
2018-05-07T08:44:59.362Z,26.22
2018-05-07T08:47:27.326Z,26.92
2018-05-07T08:49:55.249Z,27.02
2018-05-07T08:52:23.150Z,27.54
2018-05-07T08:54:51.070Z,27.67
2018-05-07T08:57:18.980Z,28.15
2018-05-07T08:59:46.910Z,28.12
2018-05-07T09:02:15.042Z,28.13
2018-05-07T09:04:42.945Z,28.28
2018-05-07T09:07:10.878Z,28.19
2018-05-07T09:09:38.803Z,27.72
2018-05-07T09:12:06.715Z,28.06
2018-05-07T09:14:34.619Z,28.23
2018-05-07T09:17:02.591Z,28.41
2018-05-07T09:19:30.533Z,28.62
2018-05-07T09:21:58.464Z,28.62
2018-05-07T09:24:26.382Z,28.74
2018-05-07T09:26:54.348Z,28.70
2018-05-07T09:29:22.255Z,28.98
2018-05-07T09:31:50.185Z,29.30
2018-05-07T09:34:18.091Z,29.45
2018-05-07T09:36:45.995Z,29.37
2018-05-07T09:39:13.926Z,29.48
2018-05-07T09:41:41.855Z,29.35
2018-05-07T09:44:09.767Z,29.70
2018-05-07T09:46:37.674Z,29.78
2018-05-07T09:49:05.680Z,29.59
2018-05-07T09:51:33.635Z,29.42
2018-05-07T09:54:01.527Z,29.78
2018-05-07T09:56:29.444Z,29.82
2018-05-07T09:58:57.373Z,30.13
2018-05-07T10:01:25.376Z,29.41
2018-05-07T10:03:53.354Z,30.16
2018-05-07T10:06:21.526Z,30.04
2018-05-07T10:08:49.447Z,30.17
2018-05-07T10:11:17.339Z,30.44
2018-05-07T10:13:45.278Z,30.18
2018-05-07T10:16:13.162Z,30.35
2018-05-07T10:18:41.076Z,29.14
2018-05-07T10:21:08.991Z,30.08
2018-05-07T10:23:37.033Z,30.49
2018-05-07T10:26:04.866Z,30.65
2018-05-07T10:28:32.778Z,30.42
2018-05-07T10:31:00.687Z,29.54
2018-05-07T10:33:28.646Z,30.09
2018-05-07T10:35:56.562Z,30.37
2018-05-07T10:38:24.467Z,30.52
2018-05-07T10:40:52.407Z,29.62
2018-05-07T10:43:20.375Z,30.47
2018-05-07T10:45:48.430Z,31.02
2018-05-07T10:48:16.335Z,31.58
2018-05-07T10:50:44.264Z,31.42
2018-05-07T10:53:12.180Z,31.26
2018-05-07T10:55:40.151Z,31.26
2018-05-07T10:58:08.052Z,30.63
2018-05-07T11:00:35.973Z,30.30
2018-05-07T11:03:03.877Z,29.92
2018-05-07T11:05:31.824Z,29.97
2018-05-07T11:07:59.725Z,30.26
2018-05-07T11:10:27.649Z,30.64
2018-05-07T11:12:55.550Z,30.22
2018-05-07T11:15:23.468Z,29.74
2018-05-07T11:17:51.359Z,29.68
2018-05-07T11:20:19.335Z,29.89
2018-05-07T11:22:47.231Z,30.01
2018-05-07T11:25:15.295Z,30.19
2018-05-07T11:27:43.195Z,30.04
2018-05-07T11:30:11.103Z,29.89
2018-05-07T11:32:39.104Z,29.81
2018-05-07T11:35:07.023Z,30.18
2018-05-07T11:37:34.910Z,30.24
2018-05-07T11:40:02.880Z,30.34
2018-05-07T11:42:30.807Z,30.70
2018-05-07T11:44:58.688Z,30.38
2018-05-07T11:47:26.676Z,30.67
2018-05-07T11:49:54.539Z,30.37
2018-05-07T11:52:22.466Z,30.47
2018-05-07T11:54:50.361Z,30.25
2018-05-07T11:57:18.283Z,30.02
2018-05-07T11:59:46.195Z,30.15
2018-05-07T12:02:14.125Z,30.54
2018-05-07T12:04:42.020Z,29.95
2018-05-07T12:07:09.938Z,30.28
2018-05-07T12:09:37.843Z,30.06
2018-05-07T12:12:05.749Z,29.95
2018-05-07T12:14:33.662Z,29.07
2018-05-07T12:17:01.591Z,28.85
2018-05-07T12:19:29.482Z,28.54
2018-05-07T12:21:57.451Z,28.73
2018-05-07T12:24:25.395Z,27.90
2018-05-07T12:26:53.303Z,28.04
2018-05-07T12:29:21.255Z,28.11
2018-05-07T12:31:49.247Z,28.72
2018-05-07T12:34:17.091Z,28.90
2018-05-07T12:36:45.090Z,28.98
2018-05-07T12:39:12.967Z,29.21
2018-05-07T12:41:40.870Z,29.09
2018-05-07T12:44:08.819Z,28.56
2018-05-07T12:46:36.708Z,27.40
2018-05-07T12:49:04.606Z,27.78
2018-05-07T12:51:32.537Z,27.83
2018-05-07T12:54:00.444Z,27.53
2018-05-07T12:56:28.337Z,27.67
2018-05-07T12:58:56.284Z,27.45
2018-05-07T13:01:24.172Z,27.85
2018-05-07T13:03:52.072Z,28.06
2018-05-07T13:06:19.971Z,28.09
2018-05-07T13:08:47.901Z,27.97
2018-05-07T13:11:15.791Z,27.95
2018-05-07T13:13:43.716Z,27.55
2018-05-07T13:16:11.623Z,27.81
2018-05-07T13:18:39.565Z,27.46
2018-05-07T13:21:07.507Z,28.10
2018-05-07T13:23:35.455Z,28.40
2018-05-07T13:26:03.365Z,28.26
2018-05-07T13:28:31.295Z,28.65
2018-05-07T13:30:59.220Z,28.93
2018-05-07T13:33:27.126Z,29.16
2018-05-07T13:35:55.070Z,28.87
2018-05-07T13:38:22.983Z,28.73
2018-05-07T13:40:50.912Z,28.35
2018-05-07T13:43:18.893Z,28.87
2018-05-07T13:45:46.770Z,29.50
2018-05-07T13:48:14.676Z,29.67
2018-05-07T13:50:42.585Z,29.59
2018-05-07T13:53:10.499Z,29.90
2018-05-07T13:55:38.421Z,29.50
2018-05-07T13:58:06.341Z,29.60
2018-05-07T14:00:34.261Z,28.98
2018-05-07T14:03:02.156Z,29.28
2018-05-07T14:05:30.076Z,28.97
2018-05-07T14:07:57.979Z,28.44
2018-05-07T14:10:25.915Z,28.29
2018-05-07T14:12:53.812Z,28.27
2018-05-07T14:15:21.711Z,28.29
2018-05-07T14:17:49.606Z,28.23
2018-05-07T14:20:17.519Z,27.67
2018-05-07T14:22:45.424Z,27.69
2018-05-07T14:25:13.307Z,27.93
2018-05-07T14:27:41.224Z,27.76
2018-05-07T14:30:09.133Z,28.01
2018-05-07T14:32:37.052Z,28.01
2018-05-07T14:35:04.935Z,28.06
2018-05-07T14:37:32.851Z,27.61
2018-05-07T14:40:00.762Z,27.51
2018-05-07T14:42:28.679Z,27.21
2018-05-07T14:44:56.598Z,27.21
2018-05-07T14:47:24.504Z,27.04
2018-05-07T14:49:52.417Z,27.23
2018-05-07T14:52:20.336Z,27.38
2018-05-07T14:54:48.265Z,27.24
2018-05-07T14:57:16.218Z,27.07
2018-05-07T14:59:44.119Z,26.80
2018-05-07T15:02:12.053Z,26.84
2018-05-07T15:04:39.961Z,26.84
2018-05-07T15:07:07.854Z,26.85
2018-05-07T15:09:35.782Z,26.46
2018-05-07T15:12:03.715Z,26.41
2018-05-07T15:14:31.727Z,26.37
2018-05-07T15:16:59.845Z,25.92
2018-05-07T15:19:27.767Z,25.71
2018-05-07T15:21:55.751Z,25.76
2018-05-07T15:24:23.714Z,26.06
2018-05-07T15:26:52.161Z,25.90
2018-05-07T15:29:20.147Z,25.75
2018-05-07T15:31:47.978Z,25.81
2018-05-07T15:34:16.282Z,26.04
2018-05-07T15:36:44.228Z,26.22
2018-05-07T15:39:12.172Z,26.33
2018-05-07T15:41:40.091Z,26.43
2018-05-07T15:44:08.113Z,26.07
2018-05-07T15:46:36.005Z,25.78
2018-05-07T15:49:04.380Z,25.44
2018-05-07T15:51:32.284Z,25.39
2018-05-07T15:54:00.690Z,25.38
2018-05-07T15:56:28.593Z,25.30
2018-05-07T15:59:24.550Z,25.08
2018-05-07T16:01:52.470Z,25.34
2018-05-07T16:04:20.607Z,25.37
2018-05-07T16:06:48.513Z,25.28
2018-05-07T16:09:17.039Z,25.02
2018-05-07T16:11:44.951Z,24.92
2018-05-07T16:14:12.907Z,24.85
2018-05-07T16:16:41.238Z,24.74
2018-05-07T16:19:09.327Z,24.79
2018-05-07T16:21:37.275Z,24.84
2018-05-07T16:24:05.174Z,24.59
2018-05-07T16:26:33.107Z,24.35
2018-05-07T16:29:01.147Z,24.18
2018-05-07T16:31:29.148Z,24.38
2018-05-07T16:33:57.068Z,24.34
2018-05-07T16:36:25.033Z,24.30
2018-05-07T16:38:53.180Z,24.12
2018-05-07T16:41:20.945Z,24.16
2018-05-07T16:43:48.835Z,23.84
2018-05-07T16:46:17.799Z,23.86
2018-05-07T16:48:46.584Z,23.80
2018-05-07T16:51:15.461Z,23.82
2018-05-07T16:53:43.155Z,23.72
2018-05-07T16:56:11.139Z,23.57
2018-05-07T16:58:39.003Z,23.35
2018-05-07T17:01:06.928Z,23.37
2018-05-07T17:03:34.836Z,23.47
2018-05-07T17:06:02.761Z,23.41
2018-05-07T17:08:30.671Z,23.44
2018-05-07T17:10:58.602Z,23.23
2018-05-07T17:13:26.506Z,23.18
2018-05-07T17:15:54.424Z,23.21
2018-05-07T17:18:22.361Z,23.43
2018-05-07T17:20:50.291Z,23.37
2018-05-07T17:23:18.216Z,23.42
2018-05-07T17:25:46.148Z,23.45
2018-05-07T17:28:14.044Z,23.39
2018-05-07T17:30:41.966Z,23.57
2018-05-07T17:33:09.859Z,23.50
2018-05-07T17:35:37.809Z,23.43
2018-05-07T17:38:05.727Z,23.43
2018-05-07T17:40:33.712Z,23.45
2018-05-07T17:43:01.646Z,23.23
2018-05-07T17:45:41.548Z,22.98
2018-05-07T17:48:21.303Z,22.75
2018-05-07T17:50:49.291Z,22.62
2018-05-07T17:53:17.187Z,22.60
2018-05-07T17:55:45.271Z,22.31
2018-05-07T17:58:13.371Z,22.14
2018-05-07T18:00:41.298Z,22.22
2018-05-07T18:03:09.211Z,22.54
2018-05-07T18:05:37.313Z,22.33
2018-05-07T18:08:05.861Z,22.27
2018-05-07T18:10:33.822Z,22.23
2018-05-07T18:13:01.695Z,22.17
2018-05-07T18:15:29.681Z,22.10
2018-05-07T18:17:57.548Z,22.14
2018-05-07T18:20:25.495Z,21.85
2018-05-07T18:22:53.403Z,21.65
2018-05-07T18:25:21.541Z,21.75
2018-05-07T18:27:49.828Z,21.69
2018-05-07T18:30:17.895Z,21.72
2018-05-07T18:32:45.915Z,21.52
2018-05-07T18:35:14.100Z,21.37
2018-05-07T18:37:56.399Z,21.36
2018-05-07T18:40:24.291Z,21.29
2018-05-07T18:42:52.288Z,21.06
2018-05-07T18:45:20.664Z,20.96
2018-05-07T18:47:49.107Z,20.54
2018-05-07T18:50:17.062Z,20.57
2018-05-07T18:52:45.007Z,20.43
2018-05-07T18:55:13.033Z,20.39
2018-05-07T18:57:40.912Z,20.18
2018-05-07T19:00:08.931Z,20.34
2018-05-07T19:02:36.847Z,20.21
2018-05-07T19:05:04.862Z,20.10
2018-05-07T19:07:32.828Z,19.97
2018-05-07T19:10:00.869Z,19.92
2018-05-07T19:12:29.065Z,19.95
2018-05-07T19:14:57.292Z,19.88
2018-05-07T19:17:25.388Z,19.76
2018-05-07T19:19:53.332Z,19.76
2018-05-07T19:22:21.250Z,19.71
2018-05-07T19:24:49.283Z,19.80
2018-05-07T19:27:17.188Z,19.54
2018-05-07T19:29:45.119Z,19.26
2018-05-07T19:32:13.078Z,19.24
2018-05-07T19:34:41.009Z,19.15
2018-05-07T19:37:08.972Z,19.04
2018-05-07T19:39:36.886Z,18.93
2018-05-07T19:42:04.808Z,19.11
2018-05-07T19:44:32.789Z,18.98
2018-05-07T19:47:00.721Z,18.86
2018-05-07T19:49:28.715Z,18.89
2018-05-07T19:51:56.667Z,18.63
2018-05-07T19:54:24.958Z,18.44
2018-05-07T19:56:52.858Z,18.36
2018-05-07T19:59:20.773Z,18.43
2018-05-07T20:01:48.669Z,18.04
2018-05-07T20:04:16.697Z,18.07
2018-05-07T20:06:44.718Z,17.84
2018-05-07T20:09:12.754Z,17.49
2018-05-07T20:11:40.636Z,17.62
2018-05-07T20:14:08.535Z,17.49
2018-05-07T20:16:37.072Z,17.36
2018-05-07T20:19:04.984Z,17.22
2018-05-07T20:21:32.907Z,17.14
2018-05-07T20:24:00.809Z,17.06
2018-05-07T20:26:28.740Z,17.06
2018-05-07T20:28:56.716Z,17.06
2018-05-07T20:31:24.780Z,17.21
2018-05-07T20:33:52.747Z,17.15
2018-05-07T20:36:20.662Z,17.18
2018-05-07T20:38:48.629Z,17.08
2018-05-07T20:41:16.586Z,17.02
2018-05-07T20:43:44.494Z,17.00
2018-05-07T20:46:12.410Z,16.94
2018-05-07T20:48:40.356Z,16.89
2018-05-07T20:51:08.305Z,17.06
2018-05-07T20:53:36.213Z,16.94
2018-05-07T20:56:04.189Z,16.88
2018-05-07T20:58:32.179Z,16.73
2018-05-07T21:01:00.096Z,16.67
2018-05-07T21:03:28.250Z,16.70
2018-05-07T21:05:56.164Z,16.63
2018-05-07T21:08:24.117Z,16.40
2018-05-07T21:10:52.065Z,16.35
2018-05-07T21:13:20.229Z,16.34
2018-05-07T21:15:48.147Z,16.21
2018-05-07T21:18:16.084Z,16.27
2018-05-07T21:20:43.974Z,16.16
2018-05-07T21:23:11.943Z,16.28
2018-05-07T21:25:39.874Z,16.29
2018-05-07T21:28:07.785Z,16.26
2018-05-07T21:30:36.487Z,16.30
2018-05-07T21:33:04.408Z,16.19
2018-05-07T21:35:32.321Z,16.14
2018-05-07T21:38:00.228Z,16.15
2018-05-07T21:40:28.145Z,16.19
2018-05-07T21:42:56.080Z,16.15
2018-05-07T21:45:23.976Z,16.14
2018-05-07T21:47:51.916Z,15.92
2018-05-07T21:50:19.861Z,15.92
2018-05-07T21:52:47.777Z,15.86
2018-05-07T21:55:15.707Z,15.88
2018-05-07T21:57:43.678Z,15.86
2018-05-07T22:00:11.721Z,15.66
2018-05-07T22:02:40.024Z,15.65
2018-05-07T22:05:08.012Z,15.70
2018-05-07T22:07:36.737Z,15.71
2018-05-07T22:10:04.845Z,15.63
2018-05-07T22:12:33.420Z,15.56
2018-05-07T22:15:01.336Z,15.55
2018-05-07T22:17:30.004Z,15.56
2018-05-07T22:19:58.430Z,15.58
2018-05-07T22:22:26.458Z,15.53
2018-05-07T22:24:54.374Z,15.66
2018-05-07T22:27:22.349Z,15.39
2018-05-07T22:29:50.357Z,15.36
2018-05-07T22:32:18.314Z,15.37
2018-05-07T22:34:46.450Z,15.14
2018-05-07T22:37:14.433Z,15.29
2018-05-07T22:39:42.357Z,15.17
2018-05-07T22:42:10.264Z,15.18
2018-05-07T22:44:38.199Z,15.17
2018-05-07T22:47:06.131Z,15.00
2018-05-07T22:49:34.060Z,15.00
2018-05-07T22:52:02.032Z,15.02
2018-05-07T22:54:29.913Z,14.87
2018-05-07T22:56:57.875Z,14.92
2018-05-07T22:59:25.777Z,14.96
2018-05-07T23:01:53.689Z,14.81
2018-05-07T23:04:21.602Z,14.81
2018-05-07T23:06:49.569Z,14.82
2018-05-07T23:09:17.511Z,14.78
2018-05-07T23:11:45.448Z,14.62
2018-05-07T23:14:13.386Z,14.49
2018-05-07T23:16:41.365Z,14.39
2018-05-07T23:19:09.281Z,14.35
2018-05-07T23:21:37.215Z,14.32
2018-05-07T23:24:05.128Z,14.23
2018-05-07T23:26:33.056Z,14.24
2018-05-07T23:29:01.077Z,14.09
2018-05-07T23:31:29.168Z,13.96
2018-05-07T23:33:57.272Z,13.95
2018-05-07T23:36:25.183Z,14.05
2018-05-07T23:38:53.172Z,14.20
2018-05-07T23:41:21.125Z,14.23
2018-05-07T23:43:49.121Z,14.10
2018-05-07T23:46:16.997Z,14.03
2018-05-07T23:48:45.329Z,13.95
2018-05-07T23:51:13.275Z,13.98
2018-05-07T23:53:42.497Z,13.77
2018-05-07T23:56:10.447Z,13.93
2018-05-07T23:58:38.366Z,13.83
